Time;durP1;ratioP1;P1;durP2;ratioP2;P2;SDS_P1;SDS_P2;PMS_P1;PMS_P2;Temp;Humidity;BMP_temperature;BMP_pressure;BME280_temperature;BME280_humidity;BME280_pressure;Samples;Min_cycle;Max_cycle;Signal;HPM_P1;HPM_P2
2022/07/31 00:00:54;;;;;;;2.35;0.73;;;;;;;21.31;59.87;100597.00;5034967;28;20116;-76
2022/07/31 00:03:20;;;;;;;1.80;0.50;;;;;;;21.44;59.70;100593.59;5035070;28;20430;-75
2022/07/31 00:05:45;;;;;;;2.08;0.43;;;;;;;21.39;59.60;100596.56;5036175;28;20030;-75
2022/07/31 00:08:11;;;;;;;2.03;0.63;;;;;;;21.21;60.37;100595.00;5018308;28;20042;-75
2022/07/31 00:10:36;;;;;;;2.30;0.60;;;;;;;21.19;60.65;100592.44;5018198;28;20421;-75
2022/07/31 00:13:02;;;;;;;1.98;0.68;;;;;;;21.10;61.19;100593.00;5034633;28;20627;-75
2022/07/31 00:15:28;;;;;;;2.33;0.70;;;;;;;20.97;61.51;100590.22;5036075;28;20061;-75
2022/07/31 00:17:53;;;;;;;2.22;0.68;;;;;;;20.42;63.07;100588.19;5035929;28;20032;-76
2022/07/31 00:20:19;;;;;;;2.50;0.52;;;;;;;20.53;62.91;100585.78;5035875;28;20029;-76
2022/07/31 00:22:46;;;;;;;1.55;0.60;;;;;;;20.84;61.98;100589.28;5035809;28;20029;-75
2022/07/31 00:25:13;;;;;;;2.28;0.68;;;;;;;20.97;61.48;100589.38;5035554;28;20041;-76
2022/07/31 00:27:40;;;;;;;1.15;0.50;;;;;;;21.19;60.78;100592.44;5051442;28;20091;-76
2022/07/31 00:30:11;;;;;;;1.58;0.50;;;;;;;20.99;61.59;100595.50;5034583;28;20029;-76
2022/07/31 00:32:37;;;;;;;3.45;0.80;;;;;;;21.05;61.41;100587.09;5035753;28;20027;-76
2022/07/31 00:35:03;;;;;;;2.50;0.70;;;;;;;21.17;60.92;100584.50;5034664;28;20033;-76
2022/07/31 00:37:28;;;;;;;2.65;0.52;;;;;;;20.98;61.57;100589.25;5035143;28;20068;-76
2022/07/31 00:39:55;;;;;;;3.45;0.70;;;;;;;21.00;61.70;100583.84;5034354;28;20053;-76
2022/07/31 00:42:22;;;;;;;1.13;0.65;;;;;;;21.06;61.28;100583.44;5035404;28;20486;-76
2022/07/31 00:44:48;;;;;;;2.63;0.80;;;;;;;20.97;61.89;100584.03;5034152;28;20029;-76
2022/07/31 00:47:13;;;;;;;0.98;0.50;;;;;;;20.76;62.75;100580.88;5035384;28;20021;-76
2022/07/31 00:49:39;;;;;;;3.15;0.80;;;;;;;20.82;62.41;100585.81;5034016;28;20025;-76
2022/07/31 00:52:05;;;;;;;2.65;0.77;;;;;;;20.88;62.11;100575.63;5035265;28;20029;-76
2022/07/31 00:54:31;;;;;;;1.70;0.65;;;;;;;20.90;62.17;100564.84;5035057;28;20064;-76
2022/07/31 00:56:57;;;;;;;2.25;0.80;;;;;;;20.82;62.99;100567.13;5033947;28;20476;-76
2022/07/31 00:59:22;;;;;;;3.05;0.80;;;;;;;20.79;62.92;100565.53;5034127;28;20043;-76
2022/07/31 01:01:51;;;;;;;1.42;0.77;;;;;;;20.76;63.11;100575.53;5033996;28;20084;-76
2022/07/31 01:04:17;;;;;;;1.63;0.70;;;;;;;20.78;62.77;100560.25;5034772;28;20029;-77
2022/07/31 01:06:43;;;;;;;2.53;0.70;;;;;;;20.80;62.76;100561.03;5017275;28;20032;-76
2022/07/31 01:09:09;;;;;;;1.92;0.77;;;;;;;20.58;63.87;100561.47;5034834;28;20029;-76
2022/07/31 01:11:47;;;;;;;2.95;0.70;;;;;;;20.59;64.37;100550.72;5034917;28;20057;-76
2022/07/31 01:14:13;;;;;;;5.13;0.98;;;;;;;20.41;64.84;100555.31;5034984;28;20083;-76
2022/07/31 01:16:44;;;;;;;4.35;0.90;;;;;;;20.51;64.19;100557.47;5034697;28;20404;-76
2022/07/31 01:19:33;;;;;;;3.15;0.80;;;;;;;20.47;65.21;100555.88;5033747;28;20435;-76
2022/07/31 01:22:19;;;;;;;4.65;1.00;;;;;;;20.31;65.72;100548.81;5033833;28;20357;-76
2022/07/31 01:25:16;;;;;;;10.45;1.23;;;;;;;20.33;65.90;100549.56;5034619;28;20036;-76
2022/07/31 01:27:56;;;;;;;1.95;0.80;;;;;;;20.38;65.21;100555.47;5034716;28;20072;-76
2022/07/31 01:30:26;;;;;;;3.67;1.02;;;;;;;20.34;65.48;100543.28;5033289;28;20492;-75
2022/07/31 01:32:53;;;;;;;2.78;0.90;;;;;;;20.43;65.03;100547.22;5034615;28;20116;-76
2022/07/31 01:35:29;;;;;;;3.97;0.80;;;;;;;20.56;64.86;100552.72;5034499;28;20024;-76
2022/07/31 01:38:07;;;;;;;2.92;0.88;;;;;;;20.68;64.61;100549.28;5034011;28;20068;-76
2022/07/31 01:40:36;;;;;;;4.13;0.70;;;;;;;20.55;64.78;100545.66;5033058;28;20473;-77
2022/07/31 01:43:07;;;;;;;4.60;0.80;;;;;;;20.55;64.60;100543.00;5034299;28;20057;-76
2022/07/31 01:45:35;;;;;;;3.05;0.80;;;;;;;20.64;64.00;100547.75;5034352;28;20108;-77
2022/07/31 01:48:02;;;;;;;2.40;0.80;;;;;;;20.65;64.04;100545.00;5033076;28;20033;-77
2022/07/31 01:50:29;;;;;;;3.40;0.70;;;;;;;20.64;63.89;100548.63;5033956;28;20039;-77
2022/07/31 01:52:56;;;;;;;3.28;0.82;;;;;;;20.57;64.45;100539.25;5034185;28;20037;-76
2022/07/31 01:55:23;;;;;;;3.85;0.90;;;;;;;20.56;64.49;100542.03;5034043;28;20073;-77
2022/07/31 01:57:49;;;;;;;3.13;1.20;;;;;;;20.64;64.10;100542.41;5016306;28;20036;-76
2022/07/31 02:00:17;;;;;;;5.47;1.00;;;;;;;20.66;63.96;100537.84;5033956;28;20026;-77
2022/07/31 02:02:44;;;;;;;3.67;0.80;;;;;;;20.80;63.39;100540.53;5033996;28;20029;-76
2022/07/31 02:05:11;;;;;;;3.95;0.77;;;;;;;20.64;63.82;100535.28;5033723;28;20520;-77
2022/07/31 02:07:39;;;;;;;2.50;1.00;;;;;;;20.78;63.19;100531.75;5032057;28;20041;-76
2022/07/31 02:10:09;;;;;;;1.98;0.80;;;;;;;20.68;63.65;100533.28;5033746;28;20033;-77
2022/07/31 02:12:36;;;;;;;1.60;0.60;;;;;;;20.70;63.66;100525.16;5033934;28;20152;-77
2022/07/31 02:15:05;;;;;;;4.30;1.20;;;;;;;20.67;63.58;100523.56;5033890;28;20029;-74
2022/07/31 02:17:32;;;;;;;1.55;0.93;;;;;;;20.74;63.19;100519.53;5033448;28;20022;-76
2022/07/31 02:20:00;;;;;;;3.08;0.90;;;;;;;20.60;63.68;100524.88;5032332;28;20035;-76
2022/07/31 02:22:28;;;;;;;1.92;0.93;;;;;;;20.60;63.59;100522.22;5033667;28;20029;-76
2022/07/31 02:24:53;;;;;;;1.77;0.75;;;;;;;20.60;63.40;100511.53;5033593;28;20465;-76
2022/07/31 02:27:19;;;;;;;2.70;0.80;;;;;;;20.65;63.52;100509.44;5032517;28;20029;-76
2022/07/31 02:29:45;;;;;;;3.10;0.85;;;;;;;20.60;63.48;100514.19;5015826;28;20033;-77
2022/07/31 02:32:13;;;;;;;2.05;0.98;;;;;;;20.64;63.36;100507.72;5015776;28;20026;-77
2022/07/31 02:34:43;;;;;;;2.00;0.82;;;;;;;20.51;63.59;100502.28;5033431;28;20025;-76
2022/07/31 02:37:10;;;;;;;2.72;0.80;;;;;;;20.45;63.58;100499.09;5033417;28;20099;-77
2022/07/31 02:39:37;;;;;;;2.22;1.00;;;;;;;20.48;63.43;100507.75;5033758;28;20025;-76
2022/07/31 02:42:04;;;;;;;3.78;0.85;;;;;;;20.54;62.80;100501.22;5033561;28;20033;-76
2022/07/31 02:44:31;;;;;;;2.65;1.00;;;;;;;20.63;62.54;100500.66;5032181;28;20029;-76
2022/07/31 02:46:58;;;;;;;2.92;1.00;;;;;;;20.64;61.88;100503.25;5031965;28;20477;-76
2022/07/31 02:49:24;;;;;;;2.28;0.85;;;;;;;20.64;62.01;100497.91;5033246;28;20037;-76
2022/07/31 02:51:50;;;;;;;2.17;0.90;;;;;;;20.55;62.20;100502.94;5032075;28;20021;-76
2022/07/31 02:54:17;;;;;;;4.25;0.85;;;;;;;20.64;61.56;100500.56;5032330;28;20043;-76
2022/07/31 02:56:43;;;;;;;2.55;0.95;;;;;;;20.62;61.48;100494.44;5033541;28;20021;-76
2022/07/31 02:59:12;;;;;;;2.67;0.70;;;;;;;20.65;61.33;100496.09;5033442;28;20057;-76
2022/07/31 03:01:37;;;;;;;2.40;0.85;;;;;;;20.74;61.31;100495.50;5031927;28;20040;-76
2022/07/31 03:04:03;;;;;;;3.40;0.70;;;;;;;20.62;61.55;100494.44;5031967;28;20034;-77
2022/07/31 03:06:28;;;;;;;4.78;0.82;;;;;;;20.70;61.15;100495.78;5031723;28;20504;-76
2022/07/31 03:08:53;;;;;;;1.70;0.80;;;;;;;20.81;60.80;100496.84;5015546;28;20025;-76
2022/07/31 03:11:20;;;;;;;1.20;0.70;;;;;;;20.66;61.35;100497.78;5033221;28;20045;-76
2022/07/31 03:13:46;;;;;;;1.52;0.63;;;;;;;20.75;61.01;100499.06;5033275;28;20043;-76
2022/07/31 03:16:13;;;;;;;2.90;0.90;;;;;;;20.67;61.06;100491.53;5031738;28;20029;-77
2022/07/31 03:18:39;;;;;;;2.95;0.82;;;;;;;20.55;61.66;100492.28;5033099;28;20029;-77
2022/07/31 03:21:08;;;;;;;1.52;0.65;;;;;;;20.62;61.47;100493.59;5036439;28;20029;-77
2022/07/31 03:23:36;;;;;;;1.65;0.60;;;;;;;20.74;60.97;100487.50;5036985;28;20021;-76
2022/07/31 03:26:03;;;;;;;3.25;0.93;;;;;;;20.93;60.54;100489.88;5035571;28;20061;-76
2022/07/31 03:28:29;;;;;;;2.80;0.73;;;;;;;20.99;60.05;100492.19;5036686;28;20048;-76
2022/07/31 03:30:55;;;;;;;1.90;0.80;;;;;;;21.01;59.87;100495.59;5035503;28;20477;-76
2022/07/31 03:33:24;;;;;;;2.15;0.77;;;;;;;20.90;60.35;100493.63;5036755;28;20034;-76
2022/07/31 03:35:50;;;;;;;2.63;0.77;;;;;;;20.83;60.48;100494.94;5019157;28;20075;-76
2022/07/31 03:38:15;;;;;;;1.90;0.70;;;;;;;20.82;60.75;100495.03;5035559;28;20052;-77
2022/07/31 03:40:41;;;;;;;1.40;0.80;;;;;;;20.84;60.77;100499.34;5035524;28;20388;-76
2022/07/31 03:43:06;;;;;;;1.58;0.60;;;;;;;20.94;60.25;100504.09;5036544;28;20033;-76
2022/07/31 03:45:35;;;;;;;2.28;0.70;;;;;;;20.89;60.41;100502.56;5036476;28;20033;-76
2022/07/31 03:48:01;;;;;;;2.88;0.98;;;;;;;20.94;60.31;100502.28;5036532;28;20021;-76
2022/07/31 03:50:27;;;;;;;3.65;0.70;;;;;;;20.98;60.05;100506.47;5035408;28;20037;-76
2022/07/31 03:52:53;;;;;;;2.10;0.73;;;;;;;21.05;59.79;100505.13;5036827;28;20380;-77
2022/07/31 03:55:19;;;;;;;2.08;0.60;;;;;;;21.06;59.97;100503.31;5035185;28;20112;-76
2022/07/31 03:57:45;;;;;;;1.58;0.80;;;;;;;21.03;60.15;100503.53;5035346;28;20446;-77
2022/07/31 04:00:10;;;;;;;1.42;0.73;;;;;;;20.93;60.29;100500.56;5036497;28;20025;-76
2022/07/31 04:02:36;;;;;;;4.95;0.93;;;;;;;20.89;60.50;100499.88;5036476;28;20037;-76
2022/07/31 04:05:03;;;;;;;2.78;0.88;;;;;;;20.87;60.42;100503.63;5036492;28;20033;-77
2022/07/31 04:07:28;;;;;;;6.88;1.10;;;;;;;20.89;60.36;100496.38;5036190;28;20473;-77
2022/07/31 04:09:54;;;;;;;2.13;0.63;;;;;;;20.90;60.37;100495.41;5036096;28;20039;-76
2022/07/31 04:12:19;;;;;;;4.72;0.80;;;;;;;20.87;60.30;100488.47;5035967;28;20500;-76
2022/07/31 04:14:45;;;;;;;1.85;0.82;;;;;;;20.96;59.87;100486.16;5035890;28;20026;-76
2022/07/31 04:17:11;;;;;;;2.25;0.73;;;;;;;20.97;60.21;100490.53;5035833;28;20036;-76
2022/07/31 04:19:38;;;;;;;2.83;0.75;;;;;;;20.98;59.92;100494.94;5034890;28;20503;-77
2022/07/31 04:22:04;;;;;;;2.95;0.80;;;;;;;20.89;60.09;100485.69;5036153;28;20060;-76
2022/07/31 04:24:29;;;;;;;2.65;0.68;;;;;;;20.89;59.91;100481.19;5034459;28;20025;-76
2022/07/31 04:26:56;;;;;;;1.70;0.77;;;;;;;20.81;60.13;100482.63;5034640;28;20358;-76
2022/07/31 04:29:22;;;;;;;2.47;0.60;;;;;;;20.95;59.87;100479.13;5035927;28;20056;-77
2022/07/31 04:31:47;;;;;;;2.88;0.80;;;;;;;20.81;60.16;100482.63;5035584;28;20030;-76
2022/07/31 04:34:12;;;;;;;3.08;0.63;;;;;;;20.98;59.48;100482.44;5035782;28;20354;-77
2022/07/31 04:36:38;;;;;;;4.32;0.90;;;;;;;21.02;59.17;100483.09;5035454;28;20041;-76
2022/07/31 04:39:03;;;;;;;1.65;0.63;;;;;;;21.10;58.95;100496.81;5034331;28;20540;-76
2022/07/31 04:41:29;;;;;;;3.67;0.90;;;;;;;21.11;58.79;100490.53;5035402;28;20045;-76
2022/07/31 04:43:56;;;;;;;1.77;0.77;;;;;;;21.22;58.66;100489.84;5035435;28;20022;-76
2022/07/31 04:46:22;;;;;;;2.58;0.77;;;;;;;21.23;58.65;100489.75;5035307;28;20053;-77
2022/07/31 04:48:48;;;;;;;1.65;0.75;;;;;;;21.19;58.89;100488.25;5034312;28;20038;-77
2022/07/31 04:51:18;;;;;;;4.28;0.77;;;;;;;21.07;59.10;100494.38;5035371;28;20061;-75
2022/07/31 04:53:45;;;;;;;3.08;0.77;;;;;;;21.25;58.84;100489.66;5035437;28;20071;-76
2022/07/31 04:58:54;;;;;;;2.97;0.70;;;;;;;21.37;58.55;100491.56;5035470;28;20555;-76
2022/07/31 05:01:20;;;;;;;2.45;0.95;;;;;;;21.36;58.39;100493.38;5034969;28;20037;-75
2022/07/31 05:03:45;;;;;;;1.25;0.63;;;;;;;21.38;58.43;100494.16;5033954;28;20036;-76
2022/07/31 05:06:11;;;;;;;4.28;0.90;;;;;;;21.43;58.44;100490.31;5033800;28;20038;-75
2022/07/31 05:08:37;;;;;;;1.58;0.80;;;;;;;21.35;58.80;100491.66;5034884;28;20033;-75
2022/07/31 05:11:21;;;;;;;4.50;0.88;;;;;;;21.35;58.65;100493.50;5033700;28;20082;-75
2022/07/31 05:13:57;;;;;;;1.13;0.70;;;;;;;21.41;58.53;100493.06;5033878;28;20121;-75
2022/07/31 05:16:23;;;;;;;5.53;0.90;;;;;;;21.29;58.75;100491.16;5034706;28;20025;-75
2022/07/31 05:18:50;;;;;;;1.45;0.70;;;;;;;21.37;58.37;100492.41;5034807;28;20033;-75
2022/07/31 05:21:16;;;;;;;4.45;0.85;;;;;;;21.33;58.68;100493.56;5033343;28;20017;-75
2022/07/31 05:23:44;;;;;;;1.83;0.75;;;;;;;21.30;58.22;100493.72;5034918;28;20076;-75
2022/07/31 05:26:10;;;;;;;1.83;0.90;;;;;;;21.45;58.01;100491.91;5033393;28;20469;-76
2022/07/31 05:28:36;;;;;;;3.03;0.80;;;;;;;21.44;57.98;100484.00;5033354;28;20037;-76
2022/07/31 05:31:03;;;;;;;3.20;0.88;;;;;;;21.34;57.57;100487.28;5034510;28;20026;-75
2022/07/31 05:33:28;;;;;;;2.75;0.80;;;;;;;21.34;57.82;100486.41;5034748;28;20499;-75
2022/07/31 05:35:54;;;;;;;3.05;1.02;;;;;;;21.26;57.96;100483.34;5016386;28;20152;-75
2022/07/31 05:38:20;;;;;;;2.13;0.85;;;;;;;21.36;57.78;100487.19;5034538;28;20382;-75
2022/07/31 05:40:46;;;;;;;1.90;0.93;;;;;;;21.35;57.49;100486.31;5033116;28;20021;-75
2022/07/31 05:43:11;;;;;;;3.42;1.10;;;;;;;21.34;57.38;100487.28;5033639;28;20033;-75
2022/07/31 05:45:37;;;;;;;1.92;0.77;;;;;;;21.32;57.30;100489.19;5033014;28;20104;-75
2022/07/31 05:48:03;;;;;;;3.60;0.80;;;;;;;21.43;56.69;100487.66;5034091;28;20064;-74
2022/07/31 05:50:28;;;;;;;2.90;0.90;;;;;;;21.35;56.92;100488.16;5032894;28;20032;-74
2022/07/31 05:52:54;;;;;;;4.72;0.80;;;;;;;21.30;56.57;100477.69;5033130;28;20025;-75
2022/07/31 05:55:20;;;;;;;3.88;0.82;;;;;;;21.51;56.36;100485.31;5034077;28;20033;-74
2022/07/31 05:57:46;;;;;;;2.38;1.00;;;;;;;21.52;56.17;100479.88;5032795;28;20033;-75
2022/07/31 06:00:12;;;;;;;4.63;1.00;;;;;;;21.61;55.90;100483.75;5033815;28;20385;-75
2022/07/31 06:02:38;;;;;;;2.65;0.80;;;;;;;21.66;55.90;100484.28;5016304;28;20457;-75
2022/07/31 06:05:04;;;;;;;3.15;0.88;;;;;;;21.78;55.24;100480.84;5033706;28;20043;-74
2022/07/31 06:07:29;;;;;;;2.83;1.08;;;;;;;21.82;55.36;100479.66;5032676;28;20040;-76
2022/07/31 06:09:55;;;;;;;2.58;0.70;;;;;;;21.60;55.22;100484.72;5033910;28;20393;-75
2022/07/31 06:12:20;;;;;;;2.92;0.90;;;;;;;21.64;55.73;100483.56;5033996;28;20473;-76
2022/07/31 06:14:45;;;;;;;1.38;0.82;;;;;;;21.62;55.94;100488.13;5032498;28;20057;-74
2022/07/31 06:17:11;;;;;;;3.78;0.75;;;;;;;21.83;55.20;100478.69;5033477;28;20024;-75
2022/07/31 06:19:36;;;;;;;2.75;0.80;;;;;;;21.67;55.53;100488.72;5032396;28;20041;-77
2022/07/31 06:22:02;;;;;;;3.63;0.70;;;;;;;21.87;55.26;100469.50;5032363;28;20400;-75
2022/07/31 06:24:27;;;;;;;3.05;0.82;;;;;;;22.03;54.92;100489.88;5033841;28;20083;-77
2022/07/31 06:26:58;;;;;;;2.38;0.93;;;;;;;22.29;54.53;100486.28;5032580;28;20384;-76
2022/07/31 06:29:23;;;;;;;5.85;0.85;;;;;;;22.17;54.75;100487.13;5033381;28;20032;-76
2022/07/31 06:31:49;;;;;;;2.58;0.90;;;;;;;22.18;54.87;100485.31;5032262;28;20033;-76
2022/07/31 06:34:14;;;;;;;1.48;0.90;;;;;;;22.36;54.60;100492.94;5032657;28;20113;-76
2022/07/31 06:36:40;;;;;;;1.55;0.60;;;;;;;22.53;53.84;100483.75;5033226;28;20397;-76
2022/07/31 06:39:06;;;;;;;1.88;0.70;;;;;;;22.56;54.07;100488.03;5033458;28;20022;-76
2022/07/31 06:41:43;;;;;;;2.17;0.70;;;;;;;22.63;53.85;100489.31;5032527;28;20061;-76
2022/07/31 06:44:10;;;;;;;2.40;0.70;;;;;;;22.94;53.08;100487.16;5032171;28;20033;-76
2022/07/31 06:46:35;;;;;;;1.40;0.60;;;;;;;23.04;52.79;100488.22;5033240;28;20025;-76
2022/07/31 06:49:01;;;;;;;1.30;0.70;;;;;;;22.85;52.87;100497.53;5032180;28;20032;-75
2022/07/31 06:51:26;;;;;;;2.22;0.90;;;;;;;22.91;52.42;100498.13;5032039;28;20025;-76
2022/07/31 06:53:52;;;;;;;2.13;1.20;;;;;;;23.21;51.94;100501.25;5033685;28;20035;-76
2022/07/31 06:56:17;;;;;;;3.05;1.50;;;;;;;23.32;51.50;100492.44;5037564;28;20128;-75
2022/07/31 06:58:43;;;;;;;2.95;0.90;;;;;;;23.31;51.05;100496.97;5019693;28;20120;-76
2022/07/31 07:01:08;;;;;;;1.73;0.70;;;;;;;23.56;50.46;100496.00;5019603;28;20094;-76
2022/07/31 07:03:34;;;;;;;3.15;0.85;;;;;;;23.57;50.24;100491.50;5036216;28;20025;-76
2022/07/31 07:05:59;;;;;;;1.73;0.85;;;;;;;23.68;50.00;100488.91;5037147;28;20082;-76
2022/07/31 07:08:24;;;;;;;2.03;0.73;;;;;;;23.71;49.87;100486.00;5035849;28;20389;-76
2022/07/31 07:10:50;;;;;;;1.58;0.80;;;;;;;23.63;49.74;100485.69;5035861;28;20397;-76
2022/07/31 07:13:15;;;;;;;2.30;0.77;;;;;;;23.79;49.21;100486.28;5037159;28;20097;-76
2022/07/31 07:15:41;;;;;;;3.75;0.95;;;;;;;23.88;49.28;100484.72;5036605;28;20037;-76
2022/07/31 07:18:06;;;;;;;3.03;1.08;;;;;;;23.94;48.88;100488.75;5035481;28;20578;-76
2022/07/31 07:20:32;;;;;;;1.75;0.82;;;;;;;23.69;48.89;100479.88;5035635;28;20026;-76
2022/07/31 07:22:58;;;;;;;1.33;0.75;;;;;;;23.85;48.47;100485.81;5036686;28;20089;-76
2022/07/31 07:25:24;;;;;;;1.30;0.73;;;;;;;24.04;47.77;100489.78;5036843;28;20022;-76
2022/07/31 07:27:49;;;;;;;1.90;0.70;;;;;;;24.00;48.01;100477.56;5036451;28;20033;-76
2022/07/31 07:30:18;;;;;;;2.42;0.80;;;;;;;24.03;47.61;100482.72;5036390;28;20025;-76
2022/07/31 07:32:43;;;;;;;1.30;0.68;;;;;;;24.30;47.77;100482.44;5036397;28;20033;-76
2022/07/31 07:35:11;;;;;;;2.63;0.57;;;;;;;24.04;47.69;100479.06;5035525;28;20033;-77
2022/07/31 07:37:38;;;;;;;1.48;0.73;;;;;;;24.03;47.39;100480.03;5036502;28;20405;-76
2022/07/31 07:40:05;;;;;;;3.13;0.65;;;;;;;24.09;47.44;100482.22;5035137;28;20048;-74
2022/07/31 07:42:31;;;;;;;4.25;0.80;;;;;;;23.97;47.53;100477.78;5036123;28;20047;-75
2022/07/31 07:44:57;;;;;;;3.25;0.68;;;;;;;24.03;47.23;100480.03;5036009;28;20409;-75
2022/07/31 07:47:23;;;;;;;2.15;0.63;;;;;;;23.98;47.24;100476.84;5035190;28;20487;-75
2022/07/31 07:49:48;;;;;;;1.33;0.68;;;;;;;24.04;47.10;100479.91;5036407;28;20104;-75
2022/07/31 07:52:14;;;;;;;3.08;0.70;;;;;;;24.17;46.94;100477.13;5035212;28;20087;-76
2022/07/31 07:54:41;;;;;;;4.43;0.90;;;;;;;24.26;46.54;100479.13;5034874;28;20022;-77
2022/07/31 07:57:14;;;;;;;2.80;0.60;;;;;;;24.22;46.22;100469.59;5034971;28;20060;-77
2022/07/31 07:59:39;;;;;;;2.38;0.70;;;;;;;24.26;46.17;100481.81;5035149;28;20056;-77
2022/07/31 08:02:04;;;;;;;1.08;0.40;;;;;;;24.39;46.04;100468.31;5035385;28;20462;-76
2022/07/31 08:04:30;;;;;;;1.52;0.70;;;;;;;24.27;45.68;100475.47;5036100;28;20162;-77
2022/07/31 08:06:56;;;;;;;1.80;0.80;;;;;;;24.32;45.47;100473.25;5035239;28;20049;-76
2022/07/31 08:09:22;;;;;;;1.02;0.57;;;;;;;24.13;45.95;100475.66;5001829;28;20036;-76
2022/07/31 08:11:47;;;;;;;2.35;0.70;;;;;;;24.20;45.87;100468.84;5034756;28;20087;-77
2022/07/31 08:14:13;;;;;;;4.00;0.70;;;;;;;24.18;45.92;100469.97;5034800;28;20386;-78
2022/07/31 08:16:39;;;;;;;2.35;0.60;;;;;;;24.08;45.63;100476.00;5034656;28;20108;-77
2022/07/31 08:19:04;;;;;;;1.40;0.50;;;;;;;24.08;45.81;100476.00;5036290;28;20113;-78
2022/07/31 08:21:30;;;;;;;2.55;0.75;;;;;;;24.11;45.92;100469.56;5036066;28;20033;-77
2022/07/31 08:23:56;;;;;;;1.88;0.40;;;;;;;24.24;45.42;100481.06;5018374;28;20120;-78
2022/07/31 08:26:21;;;;;;;3.10;0.80;;;;;;;24.24;45.63;100477.53;5018213;28;20029;-77
2022/07/31 08:28:47;;;;;;;1.88;0.60;;;;;;;24.04;45.79;100479.91;5035990;28;20091;-77
2022/07/31 08:31:14;;;;;;;2.17;0.73;;;;;;;24.08;46.03;100481.38;5035952;28;20071;-76
2022/07/31 08:33:39;;;;;;;1.35;0.60;;;;;;;23.87;46.02;100474.13;5035794;28;20472;-76
2022/07/31 08:36:07;;;;;;;1.60;0.70;;;;;;;24.07;45.63;100484.19;5034399;28;20049;-77
2022/07/31 08:38:34;;;;;;;2.45;0.68;;;;;;;24.22;45.14;100477.66;5002051;28;20022;-77
2022/07/31 08:40:59;;;;;;;2.92;0.77;;;;;;;24.14;45.76;100484.56;5035468;28;20372;-77
2022/07/31 08:43:25;;;;;;;1.25;0.60;;;;;;;24.29;44.73;100492.28;5035602;28;20030;-77
2022/07/31 08:45:52;;;;;;;1.23;0.50;;;;;;;24.22;44.66;100487.53;5034131;28;20469;-77
2022/07/31 08:48:22;;;;;;;1.35;0.70;;;;;;;24.22;44.11;100493.75;5034143;28;20038;-77
2022/07/31 08:50:48;;;;;;;1.10;0.55;;;;;;;24.17;44.37;100498.59;5035395;28;20477;-77
2022/07/31 08:53:15;;;;;;;1.92;0.50;;;;;;;24.04;45.02;100495.16;5035367;28;20032;-77
2022/07/31 08:55:43;;;;;;;2.35;0.47;;;;;;;24.11;45.03;100507.13;5033791;28;20029;-77
2022/07/31 08:58:09;;;;;;;2.90;0.50;;;;;;;24.35;44.41;100501.72;5033998;28;20468;-77
2022/07/31 09:00:34;;;;;;;0.63;0.40;;;;;;;24.46;44.00;100500.94;5017449;28;20048;-78
2022/07/31 09:03:01;;;;;;;0.50;0.40;;;;;;;24.72;43.68;100502.41;5035313;28;20358;-78
2022/07/31 09:05:27;;;;;;;0.82;0.50;;;;;;;24.65;43.43;100503.84;5035140;28;20058;-77
2022/07/31 09:07:53;;;;;;;2.22;0.60;;;;;;;24.66;43.74;100502.91;5035024;28;20473;-78
2022/07/31 09:10:20;;;;;;;1.13;0.57;;;;;;;24.62;43.97;100512.19;5033549;28;20372;-78
2022/07/31 09:12:46;;;;;;;1.00;0.50;;;;;;;24.79;44.02;100508.16;5033712;28;20500;-78
2022/07/31 09:15:26;;;;;;;2.75;0.80;;;;;;;24.90;43.89;100508.16;5033744;28;20029;-78
2022/07/31 09:17:52;;;;;;;1.63;0.57;;;;;;;24.94;43.85;100500.72;5033651;28;20035;-78
2022/07/31 09:20:23;;;;;;;0.98;0.55;;;;;;;24.90;43.54;100508.16;5034897;28;20033;-78
2022/07/31 09:23:09;;;;;;;1.00;0.57;;;;;;;24.92;43.21;100500.81;5034873;28;20068;-78
2022/07/31 09:25:35;;;;;;;1.15;0.65;;;;;;;24.91;43.66;100509.88;5033625;28;20033;-78
2022/07/31 09:28:03;;;;;;;3.10;0.55;;;;;;;25.00;43.79;100509.13;5034481;28;20436;-78
2022/07/31 09:30:29;;;;;;;3.75;0.60;;;;;;;25.06;43.70;100508.66;5034558;28;20087;-77
2022/07/31 09:32:56;;;;;;;2.53;0.80;;;;;;;25.03;43.77;100508.88;5035223;28;20025;-78
2022/07/31 09:35:24;;;;;;;1.95;0.70;;;;;;;25.19;43.23;100507.69;5034678;28;20022;-78
2022/07/31 09:37:50;;;;;;;1.95;0.60;;;;;;;25.21;43.03;100511.09;5033045;28;20489;-77
2022/07/31 09:40:15;;;;;;;2.03;0.68;;;;;;;25.26;42.86;100509.75;5033384;28;20036;-77
2022/07/31 09:42:44;;;;;;;0.90;0.50;;;;;;;25.44;42.50;100493.94;5034518;28;20053;-78
2022/07/31 09:45:17;;;;;;;1.98;0.65;;;;;;;25.51;41.53;100502.38;5033948;28;20108;-77
2022/07/31 09:47:43;;;;;;;1.83;0.60;;;;;;;25.62;41.88;100502.34;5034126;28;20058;-78
2022/07/31 09:50:09;;;;;;;1.50;0.55;;;;;;;25.59;41.96;100497.22;5034287;28;20025;-77
2022/07/31 09:52:34;;;;;;;1.77;0.60;;;;;;;25.65;41.83;100502.06;5034303;28;20033;-78
2022/07/31 09:55:06;;;;;;;1.45;0.70;;;;;;;25.77;41.83;100506.50;5032906;28;20056;-78
2022/07/31 09:57:33;;;;;;;1.30;0.60;;;;;;;25.90;41.77;100500.09;5034237;28;20040;-78
2022/07/31 09:59:58;;;;;;;1.45;0.70;;;;;;;25.93;41.59;100495.31;5033168;28;20033;-77
2022/07/31 10:02:26;;;;;;;1.45;0.63;;;;;;;25.87;41.41;100501.19;5034215;28;20424;-78
2022/07/31 10:04:53;;;;;;;1.48;0.60;;;;;;;25.88;41.53;100505.56;5033036;28;20026;-78
2022/07/31 10:07:18;;;;;;;2.45;0.80;;;;;;;25.55;42.05;100499.31;5033971;28;20049;-78
2022/07/31 10:09:44;;;;;;;2.47;0.75;;;;;;;25.59;42.16;100504.44;5032643;28;20085;-78
2022/07/31 10:12:13;;;;;;;1.23;0.52;;;;;;;25.79;42.08;100507.22;5032651;28;20080;-77
2022/07/31 10:14:42;;;;;;;1.05;0.50;;;;;;;25.90;42.08;100502.78;5033978;28;20030;-76
2022/07/31 10:17:09;;;;;;;1.15;0.50;;;;;;;26.03;42.02;100492.69;5032385;28;20027;-77
2022/07/31 10:19:36;;;;;;;1.48;0.70;;;;;;;26.16;41.77;100493.34;5033837;28;20484;-77
2022/07/31 10:22:03;;;;;;;2.00;0.60;;;;;;;26.13;41.58;100488.22;5032232;28;20178;-76
2022/07/31 10:24:34;;;;;;;3.00;0.57;;;;;;;26.41;41.70;100488.53;5033798;28;20022;-76
2022/07/31 10:27:00;;;;;;;1.73;0.60;;;;;;;26.64;41.33;100490.13;5033655;28;20358;-78
2022/07/31 10:29:26;;;;;;;1.05;0.60;;;;;;;26.51;41.19;100490.34;5033658;28;20471;-78
2022/07/31 10:31:52;;;;;;;1.42;0.50;;;;;;;26.56;40.88;100489.94;5033953;28;20036;-76
2022/07/31 10:34:20;;;;;;;2.08;0.50;;;;;;;26.18;41.22;100487.84;5032289;28;20084;-77
2022/07/31 10:36:47;;;;;;;2.33;0.68;;;;;;;26.18;41.36;100487.84;5032336;28;20046;-77
2022/07/31 10:39:30;;;;;;;1.45;0.60;;;;;;;26.10;40.86;100480.41;5033711;28;20091;-76
2022/07/31 10:42:05;;;;;;;;;;;;;;;25.79;41.89;100483.00;5034174;28;20022;-76
2022/07/31 10:44:38;;;;;;;2.67;0.82;;;;;;;26.30;41.24;100478.69;5032425;28;19917;-77
2022/07/31 10:47:14;;;;;;;1.40;0.63;;;;;;;25.92;41.18;100481.94;5033752;28;20056;-77
2022/07/31 10:49:43;;;;;;;2.13;0.70;;;;;;;26.02;41.30;100478.38;5033472;28;20037;-76
2022/07/31 10:52:10;;;;;;;0.93;0.60;;;;;;;26.23;41.27;100486.44;5033242;28;20025;-77
2022/07/31 10:54:46;;;;;;;1.00;0.50;;;;;;;25.69;41.94;100482.00;5032292;28;20488;-77
2022/07/31 10:57:29;;;;;;;2.05;0.70;;;;;;;25.90;41.35;100473.19;5033518;28;20408;-77
2022/07/31 10:59:54;;;;;;;1.58;0.55;;;;;;;26.02;41.28;100472.13;5034081;28;20056;-78
2022/07/31 11:02:30;;;;;;;1.83;0.60;;;;;;;26.34;40.56;100472.06;5033381;28;20037;-77
2022/07/31 11:05:21;;;;;;;2.15;0.70;;;;;;;26.28;40.56;100473.44;5033111;28;20095;-78
2022/07/31 11:07:58;;;;;;;3.13;0.60;;;;;;;26.29;41.05;100474.28;5033558;28;20108;-78
2022/07/31 11:10:23;;;;;;;1.48;0.50;;;;;;;25.91;41.21;100469.50;5033556;28;20467;-76
2022/07/31 11:13:19;;;;;;;1.23;0.40;;;;;;;25.91;40.65;100475.72;5015970;28;20040;-78
2022/07/31 11:15:46;;;;;;;2.30;0.50;;;;;;;26.23;40.97;100478.38;5028640;28;20409;-78
2022/07/31 11:18:17;;;;;;;1.20;0.50;;;;;;;26.43;40.73;100483.88;5031926;28;20033;-77
2022/07/31 11:20:47;;;;;;;3.50;0.57;;;;;;;26.31;40.75;100477.72;5032079;28;20025;-78
2022/07/31 11:23:15;;;;;;;1.38;0.57;;;;;;;25.88;40.87;100481.34;5032065;28;20366;-78
2022/07/31 11:25:41;;;;;;;0.80;0.40;;;;;;;25.88;41.40;100483.19;5031878;28;20034;-77
2022/07/31 11:28:14;;;;;;;2.13;0.70;;;;;;;25.66;41.04;100476.91;5033091;28;20152;-78